Time;durP1;ratioP1;P1;durP2;ratioP2;P2;SDS_P1;SDS_P2;PMS_P1;PMS_P2;Temp;Humidity;BMP_temperature;BMP_pressure;BME280_temperature;BME280_humidity;BME280_pressure;Samples;Min_cycle;Max_cycle;Signal;HPM_P1;HPM_P2
2022/06/20 00:01:24;;;;;;;5.65;2.40;;;17.70;99.90;;;;;;5051853;28;20176;-71
2022/06/20 00:03:51;;;;;;;5.35;2.22;;;17.60;99.90;;;;;;5052443;28;20199;-71
2022/06/20 00:06:20;;;;;;;7.60;2.63;;;17.40;99.90;;;;;;5051955;28;20207;-71
2022/06/20 00:08:47;;;;;;;4.70;2.70;;;17.50;99.90;;;;;;5033651;28;20203;-70
2022/06/20 00:11:15;;;;;;;8.35;2.85;;;17.40;99.90;;;;;;5033883;28;20200;-71
2022/06/20 00:13:44;;;;;;;6.03;2.42;;;17.30;99.90;;;;;;5051607;28;20555;-71
2022/06/20 00:16:14;;;;;;;5.82;2.38;;;17.20;99.90;;;;;;5051606;28;20184;-71
2022/06/20 00:18:39;;;;;;;6.25;2.38;;;17.20;99.90;;;;;;5033828;28;20253;-70
2022/06/20 00:21:06;;;;;;;8.70;2.67;;;17.20;99.90;;;;;;5033791;28;20351;-71
2022/06/20 00:23:31;;;;;;;9.13;2.53;;;17.10;99.90;;;;;;5051293;28;20354;-71
2022/06/20 00:25:57;;;;;;;7.93;2.90;;;17.00;99.90;;;;;;5051115;28;20294;-71
2022/06/20 00:28:23;;;;;;;5.53;2.72;;;17.20;99.90;;;;;;5033314;28;20294;-69
2022/06/20 00:30:48;;;;;;;7.68;2.60;;;17.40;99.90;;;;;;5034146;28;20541;-70
2022/06/20 00:33:14;;;;;;;4.82;2.47;;;17.70;99.90;;;;;;5033683;28;20207;-70
2022/06/20 00:35:40;;;;;;;9.48;2.35;;;17.60;99.90;;;;;;5051410;28;20618;-71
2022/06/20 00:38:11;;;;;;;7.22;2.50;;;17.80;99.90;;;;;;5051061;28;20212;-69
2022/06/20 00:40:40;;;;;;;5.07;2.88;;;18.00;99.90;;;;;;5050867;28;20692;-70
2022/06/20 00:43:11;;;;;;;8.20;2.97;;;17.90;99.90;;;;;;5033554;28;20249;-70
2022/06/20 00:45:43;;;;;;;6.97;3.10;;;18.00;99.90;;;;;;5033825;28;20184;-70
2022/06/20 00:48:19;;;;;;;6.28;3.35;;;18.10;99.90;;;;;;5050858;28;20204;-70
2022/06/20 00:50:48;;;;;;;7.45;3.38;;;18.20;99.90;;;;;;5051089;28;20199;-70
2022/06/20 00:53:42;;;;;;;5.72;3.00;;;18.30;99.90;;;;;;5033248;28;20218;-71
2022/06/20 00:56:43;;;;;;;5.20;2.70;;;18.20;99.90;;;;;;5025699;28;20199;-70
2022/06/20 00:59:13;;;;;;;5.72;3.05;;;18.20;99.90;;;;;;5036246;28;20191;-70
2022/06/20 01:01:41;;;;;;;5.47;2.65;;;18.20;99.90;;;;;;5050994;28;20702;-71
2022/06/20 01:04:15;;;;;;;4.63;2.25;;;18.20;99.90;;;;;;5033097;28;20248;-70
2022/06/20 01:06:48;;;;;;;6.97;2.30;;;18.00;99.90;;;;;;5033634;28;20190;-70
2022/06/20 01:09:18;;;;;;;4.75;2.88;;;17.80;99.90;;;;;;5050621;28;20254;-70
2022/06/20 01:11:53;;;;;;;6.85;3.20;;;17.60;99.90;;;;;;5033196;28;20736;-70
2022/06/20 01:14:34;;;;;;;7.03;3.10;;;17.70;99.90;;;;;;5051193;28;20199;-71
2022/06/20 01:17:04;;;;;;;7.32;3.40;;;17.50;99.90;;;;;;5050944;28;20712;-70
2022/06/20 01:19:44;;;;;;;9.65;4.32;;;17.60;99.90;;;;;;5032372;28;20208;-70
2022/06/20 01:22:38;;;;;;;7.13;4.07;;;17.90;99.90;;;;;;5032993;28;20193;-70
2022/06/20 01:25:13;;;;;;;7.75;3.90;;;17.70;99.90;;;;;;5051475;28;20174;-70
2022/06/20 01:27:42;;;;;;;8.23;4.10;;;17.40;99.90;;;;;;5051241;28;20228;-70
2022/06/20 01:30:08;;;;;;;11.90;4.72;;;17.50;99.90;;;;;;5032870;28;20226;-71
2022/06/20 01:32:34;;;;;;;8.90;4.20;;;17.70;99.90;;;;;;5032872;28;20215;-70
2022/06/20 01:35:04;;;;;;;10.23;4.47;;;17.90;99.90;;;;;;5032850;28;20288;-71
2022/06/20 01:37:33;;;;;;;6.88;4.18;;;18.00;99.90;;;;;;5052306;28;20211;-70
2022/06/20 01:40:05;;;;;;;9.60;3.90;;;17.90;99.90;;;;;;5055143;28;20258;-70
2022/06/20 01:42:32;;;;;;;6.57;3.47;;;17.90;99.90;;;;;;5037001;28;20581;-71
2022/06/20 01:45:57;;;;;;;4.95;3.17;;;18.00;99.90;;;;;;5036616;28;20208;-70
2022/06/20 01:47:52;;;;;;;7.85;3.38;;;18.00;99.90;;;;;;5054262;28;20202;-70
2022/06/20 01:50:17;;;;;;;8.23;4.15;;;17.90;99.90;;;;;;5054410;28;20195;-70
2022/06/20 01:52:44;;;;;;;8.63;4.28;;;17.90;99.90;;;;;;5036344;28;20210;-70
2022/06/20 01:55:18;;;;;;;8.18;3.88;;;17.90;99.90;;;;;;5054145;28;20168;-70
2022/06/20 01:57:49;;;;;;;9.00;4.55;;;17.70;99.90;;;;;;5076866;28;20179;-70
2022/06/20 02:00:19;;;;;;;11.48;4.38;;;17.70;99.90;;;;;;5063535;28;20672;-71
2022/06/20 02:02:49;;;;;;;8.95;3.85;;;17.80;99.90;;;;;;5036932;28;20680;-70
2022/06/20 02:05:19;;;;;;;5.50;3.15;;;17.70;99.90;;;;;;5036514;28;20199;-70
2022/06/20 02:07:45;;;;;;;7.97;3.40;;;17.50;99.90;;;;;;5053952;28;20203;-69
2022/06/20 02:10:19;;;;;;;7.30;3.60;;;17.30;99.90;;;;;;5054087;28;20603;-70
2022/06/20 02:12:46;;;;;;;9.88;3.45;;;17.50;99.90;;;;;;5036675;28;20198;-70
2022/06/20 02:15:17;;;;;;;7.80;3.42;;;17.60;99.90;;;;;;5054196;28;20203;-71
2022/06/20 02:17:46;;;;;;;4.85;2.85;;;17.60;99.90;;;;;;5053855;28;20290;-70
2022/06/20 02:20:16;;;;;;;6.82;2.92;;;17.60;99.90;;;;;;5053805;28;20672;-70
2022/06/20 02:22:43;;;;;;;9.05;3.35;;;17.60;99.90;;;;;;5036043;28;20215;-70
2022/06/20 02:25:14;;;;;;;7.10;3.10;;;17.60;99.90;;;;;;5036185;28;20760;-71
2022/06/20 02:27:44;;;;;;;6.65;2.90;;;17.70;99.90;;;;;;5036436;28;20249;-71
2022/06/20 02:30:12;;;;;;;6.55;2.95;;;17.50;99.90;;;;;;5053732;28;20276;-71
2022/06/20 02:33:00;;;;;;;7.28;3.15;;;17.40;99.90;;;;;;5053867;28;20220;-70
2022/06/20 02:35:26;;;;;;;5.20;3.05;;;17.50;99.90;;;;;;5031286;28;20299;-70
2022/06/20 02:37:52;;;;;;;5.80;3.00;;;17.60;99.90;;;;;;5035767;28;20211;-71
2022/06/20 02:40:22;;;;;;;7.28;3.60;;;17.70;99.90;;;;;;5035653;28;20557;-71
2022/06/20 02:43:05;;;;;;;7.55;3.60;;;17.50;99.90;;;;;;5028120;28;20192;-70
2022/06/20 02:45:33;;;;;;;7.70;3.95;;;17.20;99.90;;;;;;5035633;28;20215;-71
2022/06/20 02:48:06;;;;;;;6.00;3.60;;;17.10;99.90;;;;;;5035335;28;20302;-70
2022/06/20 02:50:45;;;;;;;7.80;3.45;;;17.10;99.90;;;;;;5052686;28;20205;-70
2022/06/20 02:53:30;;;;;;;8.45;4.30;;;17.20;99.90;;;;;;5035169;28;20219;-70
2022/06/20 02:55:57;;;;;;;11.50;3.53;;;17.30;99.90;;;;;;5046931;28;20196;-71
2022/06/20 02:58:30;;;;;;;5.68;3.17;;;17.30;99.90;;;;;;5035065;28;20266;-70
2022/06/20 03:01:02;;;;;;;6.78;2.90;;;17.40;99.90;;;;;;5053819;28;20184;-71
2022/06/20 03:03:38;;;;;;;5.35;2.95;;;17.50;99.90;;;;;;5034910;28;20276;-70
2022/06/20 03:06:06;;;;;;;6.07;2.92;;;17.40;99.90;;;;;;5029609;28;20267;-71
2022/06/20 03:08:32;;;;;;;5.68;2.88;;;17.50;99.90;;;;;;5052349;28;20203;-70
2022/06/20 03:11:04;;;;;;;5.47;2.83;;;17.40;99.90;;;;;;5053138;28;20262;-70
2022/06/20 03:13:30;;;;;;;7.53;2.97;;;17.40;99.90;;;;;;5034811;28;20207;-70
2022/06/20 03:15:56;;;;;;;4.68;2.65;;;17.40;99.90;;;;;;5053360;28;20179;-70
2022/06/20 03:18:23;;;;;;;7.60;3.60;;;17.50;99.90;;;;;;5052450;28;20203;-70
2022/06/20 03:20:49;;;;;;;7.35;3.33;;;17.30;99.90;;;;;;5052762;28;20203;-70
2022/06/20 03:23:28;;;;;;;7.72;3.75;;;17.20;99.90;;;;;;5052648;28;20322;-71
2022/06/20 03:25:56;;;;;;;6.45;3.03;;;17.10;99.90;;;;;;5045367;28;20235;-70
2022/06/20 03:28:23;;;;;;;8.60;4.13;;;16.90;99.90;;;;;;5034134;28;20260;-70
2022/06/20 03:30:51;;;;;;;7.90;4.55;;;17.00;99.90;;;;;;5035077;28;20176;-70
2022/06/20 03:33:17;;;;;;;7.10;3.97;;;16.90;99.90;;;;;;5052237;28;20708;-70
2022/06/20 03:35:50;;;;;;;7.25;3.13;;;17.00;99.90;;;;;;5034087;28;20206;-69
2022/06/20 03:38:16;;;;;;;6.90;3.72;;;17.10;99.90;;;;;;5034434;28;20692;-70
2022/06/20 03:40:43;;;;;;;4.80;3.20;;;17.20;99.90;;;;;;5034313;28;20203;-70
2022/06/20 03:43:12;;;;;;;4.22;2.60;;;17.20;99.90;;;;;;5052332;28;20212;-70
2022/06/20 03:45:42;;;;;;;6.57;3.63;;;17.40;99.90;;;;;;5034824;28;20176;-70
2022/06/20 03:48:13;;;;;;;7.70;3.00;;;17.30;99.90;;;;;;5034012;28;20215;-70
2022/06/20 03:50:49;;;;;;;8.23;3.15;;;17.40;99.90;;;;;;5051887;28;20231;-70
2022/06/20 03:53:32;;;;;;;7.25;3.30;;;17.20;99.90;;;;;;5034237;28;20243;-70
2022/06/20 03:56:07;;;;;;;8.65;4.07;;;17.10;99.90;;;;;;5030924;28;20673;-70
2022/06/20 03:58:38;;;;;;;9.50;3.60;;;17.00;99.90;;;;;;5049624;28;20203;-70
2022/06/20 04:01:12;;;;;;;7.75;3.38;;;17.00;99.90;;;;;;5033563;28;20183;-71
2022/06/20 04:03:47;;;;;;;6.90;3.63;;;17.20;99.90;;;;;;5051828;28;20229;-71
2022/06/20 04:06:27;;;;;;;4.68;2.55;;;17.20;99.90;;;;;;5033984;28;20249;-70
2022/06/20 04:11:47;;;;;;;5.05;3.50;;;18.20;99.90;;;;;;5051544;28;20211;-70
2022/06/20 04:14:25;;;;;;;6.40;3.72;;;19.60;99.90;;;;;;5033780;28;20210;-70
2022/06/20 04:20:31;;;;;;;6.53;3.10;;;20.70;99.90;;;;;;4989739;28;20218;-71
2022/06/20 04:22:58;;;;;;;3.58;2.40;;;20.50;99.90;;;;;;5044720;28;20225;-71
2022/06/20 04:25:50;;;;;;;7.60;3.13;;;19.70;99.90;;;;;;5051072;28;20669;-70
2022/06/20 04:28:37;;;;;;;4.32;2.25;;;19.00;99.90;;;;;;5033290;28;20613;-70
2022/06/20 04:31:25;;;;;;;5.18;2.75;;;18.80;99.90;;;;;;5027720;28;20172;-70
2022/06/20 04:34:00;;;;;;;7.15;3.78;;;19.10;99.90;;;;;;5023292;28;20212;-71
2022/06/20 04:36:48;;;;;;;5.28;2.70;;;19.80;99.90;;;;;;5033408;28;20707;-71
2022/06/20 04:39:44;;;;;;;6.85;2.28;;;19.70;99.90;;;;;;5033130;28;20219;-71
2022/06/20 04:42:18;;;;;;;4.85;2.22;;;19.80;99.90;;;;;;5046255;28;20810;-71
2022/06/20 04:45:17;;;;;;;4.53;2.60;;;19.30;99.90;;;;;;5033128;28;20196;-71
2022/06/20 04:47:50;;;;;;;5.82;3.60;;;18.60;99.90;;;;;;5027856;28;20207;-70
2022/06/20 04:50:19;;;;;;;5.72;3.20;;;18.00;99.90;;;;;;5050672;28;20222;-71
2022/06/20 04:52:47;;;;;;;7.68;2.70;;;17.70;99.90;;;;;;5030953;28;20226;-71
2022/06/20 04:55:21;;;;;;;5.68;2.92;;;17.40;99.90;;;;;;5051075;28;20171;-71
2022/06/20 04:57:47;;;;;;;8.15;3.40;;;17.40;99.90;;;;;;5033660;28;20228;-70
2022/06/20 05:00:29;;;;;;;6.50;3.03;;;17.30;99.90;;;;;;5033030;28;20704;-71
2022/06/20 05:02:57;;;;;;;8.55;3.70;;;17.40;99.90;;;;;;5032785;28;20211;-70
2022/06/20 05:05:27;;;;;;;7.75;3.20;;;17.40;99.90;;;;;;5050736;28;20573;-70
2022/06/20 05:07:53;;;;;;;6.78;3.08;;;17.40;99.90;;;;;;5050866;28;20514;-69
2022/06/20 05:10:21;;;;;;;5.25;3.10;;;17.40;99.90;;;;;;5050710;28;20219;-70
2022/06/20 05:12:51;;;;;;;4.28;2.95;;;17.40;99.90;;;;;;5050896;28;20734;-71
2022/06/20 05:15:26;;;;;;;7.90;3.88;;;17.40;99.90;;;;;;5050721;28;20675;-70
2022/06/20 05:17:53;;;;;;;7.40;4.00;;;17.40;99.90;;;;;;5032439;28;20235;-70
2022/06/20 05:20:31;;;;;;;8.32;4.10;;;17.50;99.90;;;;;;5032582;28;20214;-70
2022/06/20 05:23:10;;;;;;;7.50;4.13;;;17.40;99.90;;;;;;5032433;28;20207;-71
2022/06/20 05:25:36;;;;;;;10.45;4.45;;;17.30;99.90;;;;;;5050395;28;20260;-70
2022/06/20 05:28:05;;;;;;;9.32;4.28;;;17.30;99.90;;;;;;5050398;28;20179;-70
2022/06/20 05:30:35;;;;;;;9.35;4.43;;;17.20;99.90;;;;;;5050479;28;20664;-71
2022/06/20 05:33:11;;;;;;;7.70;4.10;;;17.30;99.90;;;;;;5032092;28;20211;-71
2022/06/20 05:36:15;;;;;;;10.93;5.00;;;17.40;99.90;;;;;;5032346;28;20210;-71
2022/06/20 05:38:50;;;;;;;9.13;4.00;;;17.40;99.90;;;;;;5027799;28;20219;-71
2022/06/20 05:41:17;;;;;;;12.15;5.32;;;17.20;99.90;;;;;;5032418;28;20210;-71
2022/06/20 05:43:43;;;;;;;7.70;4.28;;;17.20;99.90;;;;;;5035120;28;20222;-71
2022/06/20 05:46:53;;;;;;;10.80;4.97;;;17.20;99.90;;;;;;5055154;28;20171;-71
2022/06/20 05:49:33;;;;;;;11.23;4.82;;;17.10;99.90;;;;;;4968717;28;20623;-71
2022/06/20 05:52:00;;;;;;;10.85;4.43;;;17.10;99.90;;;;;;5046733;28;20648;-72
2022/06/20 05:54:37;;;;;;;5.82;4.18;;;17.00;99.90;;;;;;5050336;23;20228;-76
2022/06/20 05:57:12;;;;;;;10.25;5.18;;;17.00;99.90;;;;;;5029391;28;20208;-76
2022/06/20 05:59:50;;;;;;;9.95;5.20;;;17.00;99.90;;;;;;5028621;28;20208;-76
2022/06/20 06:02:57;;;;;;;11.40;5.85;;;17.00;99.90;;;;;;5030348;28;20231;-76
2022/06/20 06:05:34;;;;;;;8.93;5.30;;;16.90;99.90;;;;;;4949827;28;20207;-76
2022/06/20 06:08:22;;;;;;;10.90;6.05;;;16.90;99.90;;;;;;5020389;28;20291;-75
2022/06/20 06:11:15;;;;;;;12.40;6.50;;;16.90;99.90;;;;;;5030695;28;20219;-76
2022/06/20 06:13:54;;;;;;;13.00;7.28;;;16.40;99.90;;;;;;5029169;28;20299;-75
2022/06/20 06:16:47;;;;;;;14.23;6.80;;;15.90;99.90;;;;;;5030700;28;20200;-77
2022/06/20 06:19:47;;;;;;;16.15;7.00;;;15.60;99.90;;;;;;5029338;28;20180;-77
2022/06/20 06:22:20;;;;;;;13.88;7.38;;;15.40;99.90;;;;;;5029114;28;20218;-77
2022/06/20 06:24:49;;;;;;;12.65;7.40;;;15.30;99.90;;;;;;5023446;28;20207;-76
2022/06/20 06:27:23;;;;;;;14.85;7.35;;;15.30;99.90;;;;;;5033123;28;20201;-77
2022/06/20 06:30:01;;;;;;;11.80;7.68;;;15.40;99.90;;;;;;5034049;28;20240;-76
2022/06/20 06:32:59;;;;;;;10.45;6.53;;;15.60;99.90;;;;;;5032661;28;20299;-74
2022/06/20 06:35:32;;;;;;;9.63;6.38;;;15.80;99.90;;;;;;5031752;28;20212;-75
2022/06/20 06:38:09;;;;;;;8.05;5.45;;;16.00;99.90;;;;;;5033686;28;20204;-74
2022/06/20 06:40:40;;;;;;;11.35;6.90;;;16.30;99.90;;;;;;5032833;28;20266;-75
2022/06/20 06:43:21;;;;;;;12.32;6.43;;;16.40;99.90;;;;;;5032259;28;20673;-76
2022/06/20 06:45:51;;;;;;;9.63;6.03;;;16.70;99.90;;;;;;5024610;28;20191;-75
2022/06/20 06:48:25;;;;;;;9.38;5.65;;;16.70;99.90;;;;;;5048235;28;20251;-75
2022/06/20 06:51:07;;;;;;;8.30;4.80;;;16.80;99.90;;;;;;5025498;28;20212;-76
2022/06/20 06:53:43;;;;;;;8.18;6.05;;;16.90;99.90;;;;;;5032265;28;20204;-76
2022/06/20 06:56:45;;;;;;;7.40;6.13;;;17.10;99.90;;;;;;5033837;28;20215;-76
2022/06/20 06:59:24;;;;;;;7.50;5.53;;;17.30;99.90;;;;;;5016909;28;20232;-76
2022/06/20 07:01:55;;;;;;;8.85;6.13;;;17.60;99.90;;;;;;5033566;28;20212;-76
2022/06/20 07:04:31;;;;;;;8.90;6.00;;;17.70;99.90;;;;;;5033356;28;20744;-76
2022/06/20 07:07:42;;;;;;;10.27;5.72;;;17.60;99.90;;;;;;5032498;28;20775;-77
2022/06/20 07:10:17;;;;;;;6.88;5.28;;;17.50;99.90;;;;;;5032002;28;20223;-76
2022/06/20 07:12:49;;;;;;;7.63;5.22;;;17.40;99.90;;;;;;5033778;28;20191;-76
2022/06/20 07:15:34;;;;;;;7.05;5.50;;;17.30;99.90;;;;;;5031814;28;20215;-77
2022/06/20 07:18:03;;;;;;;7.32;5.13;;;17.40;99.90;;;;;;5025360;28;20228;-76
2022/06/20 07:20:41;;;;;;;6.90;5.57;;;17.40;99.90;;;;;;5031233;28;20208;-76
2022/06/20 07:23:13;;;;;;;8.88;5.20;;;17.30;99.90;;;;;;5031616;28;20207;-76
2022/06/20 07:25:46;;;;;;;8.32;4.82;;;17.40;99.90;;;;;;5031659;28;20205;-77
2022/06/20 07:28:34;;;;;;;9.05;5.50;;;17.40;99.90;;;;;;5041137;28;20179;-76
2022/06/20 07:31:49;;;;;;;8.00;5.78;;;17.40;99.90;;;;;;5023026;28;20176;-76
2022/06/20 07:34:20;;;;;;;10.65;6.18;;;17.40;99.90;;;;;;5019659;28;20212;-76
2022/06/20 07:36:49;;;;;;;10.25;6.57;;;17.50;99.90;;;;;;5033683;28;20180;-77
2022/06/20 07:39:34;;;;;;;10.15;5.70;;;17.40;99.90;;;;;;5031526;28;20838;-77
2022/06/20 07:42:03;;;;;;;7.70;5.90;;;17.40;99.90;;;;;;5031751;28;20208;-77
2022/06/20 07:44:37;;;;;;;8.95;5.60;;;17.40;99.90;;;;;;5032378;28;20216;-78
2022/06/20 07:47:17;;;;;;;7.70;5.78;;;17.40;99.90;;;;;;5031709;28;20299;-77
2022/06/20 07:49:48;;;;;;;10.75;7.38;;;17.40;99.90;;;;;;5031535;28;20632;-77
2022/06/20 07:52:35;;;;;;;7.88;5.90;;;17.40;99.90;;;;;;5036808;28;20172;-77
2022/06/20 07:55:07;;;;;;;10.52;6.28;;;17.40;99.90;;;;;;5032381;28;20696;-76
2022/06/20 07:57:43;;;;;;;7.50;5.57;;;17.50;99.90;;;;;;5032800;28;20683;-76
2022/06/20 08:00:16;;;;;;;10.23;5.80;;;17.70;99.90;;;;;;5032672;28;20566;-76
2022/06/20 08:02:53;;;;;;;7.57;5.90;;;17.60;99.90;;;;;;5031005;28;20207;-77
2022/06/20 08:05:27;;;;;;;10.63;6.15;;;17.60;99.90;;;;;;5031221;28;20266;-76
2022/06/20 08:08:10;;;;;;;8.55;5.60;;;17.60;99.90;;;;;;5031036;28;20211;-76
2022/06/20 08:10:59;;;;;;;7.35;5.32;;;17.70;99.90;;;;;;5030856;28;20212;-77
2022/06/20 08:13:29;;;;;;;9.07;5.68;;;17.60;99.90;;;;;;5030672;28;20216;-77
2022/06/20 08:15:58;;;;;;;8.70;5.70;;;17.60;99.90;;;;;;5031548;28;20203;-76
2022/06/20 08:18:25;;;;;;;8.13;5.85;;;17.50;99.90;;;;;;5030622;28;20204;-77
2022/06/20 08:21:10;;;;;;;10.70;5.50;;;17.50;99.90;;;;;;5030986;28;20208;-77
2022/06/20 08:23:44;;;;;;;11.60;6.28;;;17.50;99.90;;;;;;5030444;28;20230;-77
2022/06/20 08:26:17;;;;;;;5.82;5.15;;;17.70;99.90;;;;;;5032468;28;20677;-76
2022/06/20 08:28:48;;;;;;;6.95;5.72;;;17.80;99.90;;;;;;5039694;28;20552;-77
2022/06/20 08:31:22;;;;;;;6.07;4.43;;;18.00;99.90;;;;;;5030605;28;20215;-77
2022/06/20 08:34:04;;;;;;;12.45;7.07;;;18.10;99.90;;;;;;5032219;28;20612;-77
2022/06/20 08:36:47;;;;;;;8.25;5.60;;;18.20;99.90;;;;;;5030615;28;20220;-76
2022/06/20 08:39:21;;;;;;;14.25;7.07;;;18.10;99.90;;;;;;5030323;28;20328;-76
2022/06/20 08:42:09;;;;;;;13.35;8.27;;;18.50;99.90;;;;;;5031770;28;20669;-77
2022/06/20 08:45:19;;;;;;;11.23;6.50;;;18.30;99.90;;;;;;5030611;28;20578;-77
2022/06/20 08:48:03;;;;;;;7.00;5.30;;;18.20;99.90;;;;;;5026553;28;20223;-77
2022/06/20 08:51:04;;;;;;;7.38;5.55;;;18.00;99.90;;;;;;5030442;28;20212;-77
2022/06/20 08:54:13;;;;;;;6.80;5.40;;;17.80;99.90;;;;;;4990304;28;20223;-77
2022/06/20 08:56:44;;;;;;;8.07;5.82;;;17.70;99.90;;;;;;5015805;28;20728;-76
2022/06/20 08:59:16;;;;;;;7.22;5.18;;;17.80;99.90;;;;;;5032242;28;20262;-77
2022/06/20 09:02:12;;;;;;;8.90;5.95;;;17.60;99.90;;;;;;5030521;28;20206;-77
2022/06/20 09:04:37;;;;;;;7.75;5.50;;;17.50;99.90;;;;;;5018858;28;20209;-77
2022/06/20 09:07:45;;;;;;;11.18;6.72;;;17.60;99.90;;;;;;5035667;28;20172;-77
2022/06/20 09:10:28;;;;;;;8.98;6.05;;;17.60;99.90;;;;;;5029189;28;20633;-76
2022/06/20 09:13:13;;;;;;;6.30;4.57;;;17.40;99.90;;;;;;5034870;28;20187;-76
2022/06/20 09:15:48;;;;;;;5.80;4.57;;;17.40;99.90;;;;;;5031454;28;20680;-76
2022/06/20 09:18:16;;;;;;;7.55;4.45;;;17.50;99.90;;;;;;5031045;28;20207;-76
2022/06/20 09:20:49;;;;;;;10.65;5.00;;;17.40;99.90;;;;;;5031531;28;20196;-77
2022/06/20 09:23:53;;;;;;;7.93;5.40;;;17.50;99.90;;;;;;5031523;28;20693;-77
2022/06/20 09:26:57;;;;;;;5.18;4.10;;;17.50;99.90;;;;;;5030097;28;20204;-76
2022/06/20 09:30:13;;;;;;;4.82;3.70;;;17.50;99.90;;;;;;5014762;28;20611;-76
2022/06/20 09:32:57;;;;;;;6.72;4.00;;;17.60;99.90;;;;;;4996656;28;20214;-76
2022/06/20 09:35:33;;;;;;;10.02;4.97;;;17.70;99.90;;;;;;5031052;28;20266;-76
2022/06/20 09:38:05;;;;;;;7.47;4.35;;;17.70;99.90;;;;;;5029586;28;20200;-76
2022/06/20 09:41:05;;;;;;;10.50;5.32;;;17.70;99.90;;;;;;5029729;28;20212;-76
2022/06/20 09:44:01;;;;;;;7.80;4.10;;;17.70;99.90;;;;;;5031367;28;20204;-76
2022/06/20 09:46:52;;;;;;;9.05;4.75;;;17.60;99.90;;;;;;5033794;28;20204;-76
2022/06/20 09:49:28;;;;;;;5.13;4.15;;;17.60;99.90;;;;;;5031862;28;20206;-76
2022/06/20 09:52:09;;;;;;;5.50;4.38;;;17.70;99.90;;;;;;5026460;28;20172;-76
2022/06/20 09:55:10;;;;;;;7.53;4.32;;;17.60;99.90;;;;;;5041355;28;20239;-76
2022/06/20 09:57:53;;;;;;;7.63;4.57;;;17.50;99.90;;;;;;4976084;28;20389;-76
2022/06/20 10:00:38;;;;;;;6.22;3.78;;;17.50;99.90;;;;;;5029308;28;20262;-76
2022/06/20 10:03:14;;;;;;;5.97;3.60;;;17.50;99.90;;;;;;5035396;28;20204;-76
2022/06/20 10:06:13;;;;;;;4.65;3.50;;;17.40;99.90;;;;;;5033322;28;20269;-76
2022/06/20 10:09:02;;;;;;;9.27;4.93;;;17.40;99.90;;;;;;5035238;28;20566;-76
2022/06/20 10:11:45;;;;;;;5.45;4.35;;;17.40;99.90;;;;;;5036204;28;20289;-76
2022/06/20 10:14:39;;;;;;;5.53;4.38;;;17.50;99.90;;;;;;5034525;28;20231;-76
2022/06/20 10:17:42;;;;;;;17.85;11.18;;;17.50;99.90;;;;;;5036796;28;20208;-76
2022/06/20 10:20:45;;;;;;;10.77;6.55;;;17.40;99.90;;;;;;5030055;28;20210;-76
2022/06/20 10:23:17;;;;;;;10.20;7.43;;;17.40;99.90;;;;;;5036705;28;20211;-77
2022/06/20 10:26:21;;;;;;;8.30;6.55;;;17.50;99.90;;;;;;5037665;28;20214;-77
2022/06/20 10:28:55;;;;;;;7.85;5.57;;;17.50;99.90;;;;;;5017147;28;20404;-76
2022/06/20 10:31:43;;;;;;;8.07;5.15;;;17.40;99.90;;;;;;5037083;28;20176;-76
2022/06/20 10:34:24;;;;;;;6.93;4.82;;;17.40;99.90;;;;;;5033744;28;20196;-77
2022/06/20 10:37:11;;;;;;;7.25;5.35;;;17.50;99.90;;;;;;5035918;28;20230;-76
2022/06/20 10:40:00;;;;;;;6.32;5.38;;;17.60;99.90;;;;;;5035521;28;20299;-76
2022/06/20 10:42:33;;;;;;;7.93;5.68;;;17.60;99.90;;;;;;5044098;28;20219;-77
2022/06/20 10:45:53;;;;;;;7.05;4.90;;;17.60;99.90;;;;;;5033595;28;20212;-76
2022/06/20 10:48:24;;;;;;;7.05;4.80;;;17.70;99.90;;;;;;5033045;28;20212;-78
2022/06/20 10:51:11;;;;;;;4.88;4.13;;;17.60;99.90;;;;;;5026942;28;20307;-77
2022/06/20 10:54:00;;;;;;;5.95;4.20;;;17.60;99.90;;;;;;5032558;28;20199;-76
2022/06/20 10:56:54;;;;;;;5.43;4.57;;;17.50;99.90;;;;;;5034535;28;20211;-76
2022/06/20 10:59:35;;;;;;;6.07;4.55;;;17.50;99.90;;;;;;5034645;28;20208;-77
2022/06/20 11:02:07;;;;;;;5.82;5.10;;;17.40;99.90;;;;;;5034644;28;20573;-77
2022/06/20 11:04:56;;;;;;;6.90;5.10;;;17.40;99.90;;;;;;5032902;28;20209;-76
2022/06/20 11:07:33;;;;;;;10.57;5.50;;;17.30;99.90;;;;;;5034535;28;20188;-76
2022/06/20 11:09:59;;;;;;;7.72;4.68;;;17.30;99.90;;;;;;5033142;28;20216;-76
2022/06/20 11:12:46;;;;;;;6.53;4.95;;;17.30;99.90;;;;;;5033148;28;20668;-76
2022/06/20 11:15:44;;;;;;;7.15;5.75;;;17.40;99.90;;;;;;5032459;28;20223;-76
2022/06/20 11:18:29;;;;;;;5.43;4.90;;;17.50;99.90;;;;;;5039241;28;20280;-77
2022/06/20 11:21:25;;;;;;;6.35;4.15;;;17.70;99.90;;;;;;5025719;28;20197;-76
2022/06/20 11:24:12;;;;;;;12.00;7.68;;;17.70;99.90;;;;;;5030697;28;20571;-77
2022/06/20 11:27:05;;;;;;;6.47;3.88;;;17.70;99.90;;;;;;5034067;28;20211;-76
2022/06/20 11:29:50;;;;;;;3.53;2.92;;;17.70;99.90;;;;;;5032048;28;20208;-77
2022/06/20 11:32:28;;;;;;;4.63;3.38;;;17.70;99.90;;;;;;5034789;28;20613;-77
2022/06/20 11:35:08;;;;;;;5.07;3.78;;;17.70;99.90;;;;;;5025759;28;20216;-77
2022/06/20 11:38:11;;;;;;;4.43;2.88;;;17.70;99.90;;;;;;5032949;28;20257;-77
2022/06/20 11:41:00;;;;;;;3.63;2.88;;;17.70;99.90;;;;;;5034010;28;20224;-76
2022/06/20 11:44:06;;;;;;;3.53;3.10;;;17.70;99.90;;;;;;5036564;28;20261;-77
2022/06/20 11:46:53;;;;;;;3.90;2.33;;;17.70;99.90;;;;;;4981295;28;20217;-77
2022/06/20 11:49:34;;;;;;;3.80;2.50;;;17.50;99.90;;;;;;5045788;28;20672;-77
2022/06/20 11:52:18;;;;;;;4.55;2.33;;;17.60;99.90;;;;;;5025866;28;20226;-76
2022/06/20 11:54:47;;;;;;;3.05;2.42;;;17.60;99.90;;;;;;5051181;23;20222;-72
2022/06/20 11:57:42;;;;;;;3.45;2.30;;;17.50;99.90;;;;;;5012425;28;20215;-72
2022/06/20 12:00:21;;;;;;;4.50;2.28;;;17.50;99.90;;;;;;5011418;28;20569;-73
2022/06/20 12:03:18;;;;;;;2.85;2.17;;;17.70;99.90;;;;;;5011248;28;20209;-73
2022/06/20 12:05:50;;;;;;;1.85;1.65;;;17.70;99.90;;;;;;5007887;28;20205;-72
2022/06/20 12:08:29;;;;;;;2.13;1.67;;;17.80;99.90;;;;;;4990170;28;20270;-72
2022/06/20 12:11:16;;;;;;;2.92;2.08;;;17.70;99.90;;;;;;4994567;28;20208;-73
2022/06/20 12:14:02;;;;;;;2.63;1.77;;;17.70;99.90;;;;;;4994383;28;20203;-73
2022/06/20 12:16:31;;;;;;;2.15;1.95;;;17.80;99.90;;;;;;4994450;28;20216;-73
2022/06/20 12:24:48;;;;;;;1.60;1.38;;;17.60;99.90;;;;;;5012161;28;20211;-72
2022/06/20 12:27:19;;;;;;;2.42;1.75;;;17.50;99.90;;;;;;4994218;28;20216;-72
2022/06/20 12:29:47;;;;;;;4.20;2.97;;;17.50;99.90;;;;;;4993912;28;20208;-73
2022/06/20 12:32:26;;;;;;;4.88;3.03;;;17.70;99.90;;;;;;5011546;28;20546;-73
2022/06/20 12:35:16;;;;;;;2.85;2.40;;;17.90;99.90;;;;;;4994077;28;20212;-73
2022/06/20 12:37:48;;;;;;;4.50;3.00;;;17.90;99.90;;;;;;4993798;28;20205;-71
2022/06/20 12:40:39;;;;;;;3.10;2.25;;;18.00;99.90;;;;;;4994031;28;20545;-72
2022/06/20 12:43:18;;;;;;;3.13;2.10;;;18.00;99.90;;;;;;5011056;28;20661;-73
2022/06/20 12:46:14;;;;;;;1.92;1.60;;;18.00;99.90;;;;;;5011730;28;20193;-72
2022/06/20 12:49:05;;;;;;;2.38;2.13;;;18.10;99.90;;;;;;4993666;28;20216;-73
2022/06/20 12:51:42;;;;;;;2.67;1.63;;;18.20;99.90;;;;;;5011035;28;20241;-73
2022/06/20 12:54:34;;;;;;;2.38;1.63;;;18.30;99.90;;;;;;5011173;28;20212;-73
2022/06/20 12:57:17;;;;;;;2.50;1.95;;;18.20;99.90;;;;;;4993049;28;20217;-73
2022/06/20 13:00:17;;;;;;;2.38;1.70;;;18.00;99.90;;;;;;5010930;28;20207;-73
2022/06/20 13:03:06;;;;;;;2.97;1.35;;;17.90;99.90;;;;;;4987013;28;20629;-72
2022/06/20 13:05:53;;;;;;;1.55;1.45;;;18.10;99.90;;;;;;5010838;28;20556;-73
2022/06/20 13:08:40;;;;;;;2.03;1.30;;;18.10;99.90;;;;;;5010849;28;20212;-73
2022/06/20 13:11:17;;;;;;;2.00;1.55;;;18.20;99.90;;;;;;5010971;28;20545;-73
2022/06/20 13:14:28;;;;;;;2.03;1.70;;;18.40;99.90;;;;;;4993125;28;20197;-73
2022/06/20 13:17:00;;;;;;;1.55;1.40;;;18.40;99.90;;;;;;4992945;28;20200;-73
2022/06/20 13:19:39;;;;;;;1.70;1.15;;;18.50;99.90;;;;;;5010333;28;20737;-73
2022/06/20 13:22:16;;;;;;;2.03;1.58;;;18.10;99.90;;;;;;5010326;28;20261;-73
2022/06/20 13:25:06;;;;;;;4.13;2.17;;;18.20;99.90;;;;;;5011394;28;20260;-73
2022/06/20 13:27:55;;;;;;;3.95;2.20;;;18.40;99.90;;;;;;5010855;28;20765;-72
2022/06/20 13:30:39;;;;;;;3.97;1.33;;;18.40;99.90;;;;;;4992771;28;20221;-72
2022/06/20 13:33:29;;;;;;;1.55;1.40;;;18.40;99.90;;;;;;5013160;28;20759;-73
2022/06/20 13:36:23;;;;;;;1.42;1.23;;;18.60;99.90;;;;;;4999528;28;20221;-73
2022/06/20 13:39:00;;;;;;;2.55;1.80;;;18.40;99.90;;;;;;4999458;28;20204;-73
2022/06/20 13:41:42;;;;;;;2.15;1.70;;;18.50;99.90;;;;;;4998797;28;20299;-71
2022/06/20 13:44:33;;;;;;;3.10;1.70;;;18.70;99.90;;;;;;5012113;28;20208;-73
2022/06/20 13:47:10;;;;;;;4.07;2.15;;;18.90;99.90;;;;;;4999469;28;20212;-73
2022/06/20 13:50:04;;;;;;;4.47;2.08;;;18.70;99.90;;;;;;5016495;28;20227;-73
2022/06/20 13:52:45;;;;;;;2.03;1.83;;;18.50;99.90;;;;;;4999266;28;20705;-73
2022/06/20 13:55:37;;;;;;;2.85;2.03;;;18.40;99.90;;;;;;4999463;28;20223;-72
2022/06/20 13:58:19;;;;;;;2.70;2.10;;;18.70;99.90;;;;;;4999705;28;20184;-73